createdAt,value
2018-06-24T00:01:17.716Z,8.17
2018-06-24T00:03:47.866Z,8.90
2018-06-24T00:06:17.572Z,8.30
2018-06-24T00:08:47.345Z,5.90
2018-06-24T00:11:23.949Z,6.67
2018-06-24T00:13:53.664Z,9.57
2018-06-24T00:16:23.284Z,6.33
2018-06-24T00:18:52.915Z,6.37
2018-06-24T00:21:22.605Z,5.30
2018-06-24T00:23:52.292Z,5.67
2018-06-24T00:26:21.940Z,7.27
2018-06-24T00:28:51.604Z,8.53
2018-06-24T00:31:21.285Z,7.17
2018-06-24T00:33:50.937Z,8.67
2018-06-24T00:36:20.632Z,9.13
2018-06-24T00:38:50.512Z,5.27
2018-06-24T00:41:20.188Z,8.40
2018-06-24T00:43:49.810Z,6.23
2018-06-24T00:46:19.449Z,5.57
2018-06-24T00:48:49.148Z,7.13
2018-06-24T00:51:18.784Z,5.60
2018-06-24T00:53:48.485Z,7.07
2018-06-24T00:56:18.168Z,5.97
2018-06-24T00:58:47.807Z,8.93
2018-06-24T01:01:17.491Z,6.87
2018-06-24T01:03:47.136Z,8.67
2018-06-24T01:06:17.428Z,8.83
2018-06-24T01:08:47.148Z,8.10
2018-06-24T01:11:16.799Z,4.60
2018-06-24T01:13:46.438Z,5.83
2018-06-24T01:16:16.116Z,6.37
2018-06-24T01:18:45.776Z,6.60
2018-06-24T01:21:15.547Z,8.20
2018-06-24T01:23:45.225Z,7.63
2018-06-24T01:26:14.861Z,5.93
2018-06-24T01:28:44.517Z,6.17
2018-06-24T01:31:14.230Z,5.50
2018-06-24T01:33:43.936Z,5.53
2018-06-24T01:36:13.579Z,8.67
2018-06-24T01:38:43.384Z,4.57
2018-06-24T01:41:13.032Z,5.17
2018-06-24T01:43:42.681Z,5.60
2018-06-24T01:46:12.379Z,6.73
2018-06-24T01:48:42.000Z,5.57
2018-06-24T01:51:17.672Z,6.00
2018-06-24T01:53:47.312Z,12.40
2018-06-24T01:56:16.943Z,5.00
2018-06-24T01:58:46.640Z,5.07
2018-06-24T02:01:16.314Z,4.23
2018-06-24T02:03:45.975Z,6.43
2018-06-24T02:06:15.668Z,7.00
2018-06-24T02:08:45.305Z,8.07
2018-06-24T02:11:14.949Z,5.80
2018-06-24T02:13:44.625Z,6.03
2018-06-24T02:16:14.285Z,4.40
2018-06-24T02:18:43.925Z,6.23
2018-06-24T02:21:13.601Z,8.73
2018-06-24T02:23:43.267Z,8.27
2018-06-24T02:26:12.962Z,5.87
2018-06-24T02:28:42.601Z,7.27
2018-06-24T02:31:12.276Z,4.33
2018-06-24T02:33:41.911Z,10.23
2018-06-24T02:36:11.538Z,5.27
2018-06-24T02:38:41.204Z,9.50
2018-06-24T02:41:11.070Z,5.87
2018-06-24T02:43:41.338Z,9.30
2018-06-24T02:46:10.995Z,5.07
2018-06-24T02:48:40.728Z,4.57
2018-06-24T02:51:10.470Z,8.60
2018-06-24T02:53:40.149Z,9.93
2018-06-24T02:56:09.750Z,8.17
2018-06-24T02:58:39.449Z,9.30
2018-06-24T03:01:09.301Z,7.37
2018-06-24T03:03:38.912Z,7.20
2018-06-24T03:06:08.604Z,8.60
2018-06-24T03:08:38.276Z,5.40
2018-06-24T03:11:07.923Z,8.37
2018-06-24T03:13:37.600Z,4.80
2018-06-24T03:16:07.247Z,7.03
2018-06-24T03:18:36.932Z,5.40
2018-06-24T03:21:06.752Z,7.57
2018-06-24T03:23:36.387Z,7.20
2018-06-24T03:26:06.058Z,9.03
2018-06-24T03:28:35.684Z,3.97
2018-06-24T03:31:05.333Z,9.13
2018-06-24T03:33:35.021Z,11.63
2018-06-24T03:36:04.728Z,8.77
2018-06-24T03:38:34.448Z,6.73
2018-06-24T03:41:04.131Z,7.77
2018-06-24T03:43:33.748Z,8.90
2018-06-24T03:46:03.429Z,11.23
2018-06-24T03:48:33.103Z,6.70
2018-06-24T03:51:02.736Z,9.90
2018-06-24T03:53:32.400Z,9.60
2018-06-24T03:56:02.079Z,6.37
2018-06-24T03:58:31.700Z,4.37
2018-06-24T04:01:01.366Z,4.70
2018-06-24T04:03:31.044Z,7.20
2018-06-24T04:06:00.685Z,5.10
2018-06-24T04:08:30.347Z,5.07
2018-06-24T04:11:00.059Z,3.00
2018-06-24T04:13:29.696Z,5.70
2018-06-24T04:16:03.972Z,8.20
2018-06-24T04:18:38.997Z,9.43
2018-06-24T04:21:08.988Z,8.07
2018-06-24T04:23:38.609Z,9.47
2018-06-24T04:26:09.562Z,8.67
2018-06-24T04:28:39.588Z,7.77
2018-06-24T04:31:10.265Z,4.87
2018-06-24T04:33:40.155Z,8.93
2018-06-24T04:36:09.779Z,7.27
2018-06-24T04:38:39.456Z,6.40
2018-06-24T04:41:09.139Z,11.97
2018-06-24T04:43:38.771Z,8.73
2018-06-24T04:46:08.456Z,7.77
2018-06-24T04:48:38.080Z,8.17
2018-06-24T04:51:07.704Z,7.67
2018-06-24T04:53:37.402Z,6.97
2018-06-24T04:56:07.050Z,7.13
2018-06-24T04:58:36.724Z,5.00
2018-06-24T05:01:06.392Z,3.17
2018-06-24T05:03:36.023Z,9.40
2018-06-24T05:06:05.663Z,9.67
2018-06-24T05:08:35.327Z,6.97
2018-06-24T05:11:04.972Z,9.27
2018-06-24T05:13:34.613Z,5.70
2018-06-24T05:16:04.484Z,9.93
2018-06-24T05:18:34.111Z,7.37
2018-06-24T05:21:03.763Z,6.53
2018-06-24T05:23:33.487Z,12.10
2018-06-24T05:26:03.131Z,7.70
2018-06-24T05:28:32.765Z,8.97
2018-06-24T05:31:02.453Z,11.23
2018-06-24T05:33:32.130Z,9.97
2018-06-24T05:36:01.759Z,7.20
2018-06-24T05:38:31.476Z,9.63
2018-06-24T05:41:01.116Z,10.40
2018-06-24T05:43:30.763Z,9.83
2018-06-24T05:46:00.452Z,8.67
2018-06-24T05:48:30.104Z,8.60
2018-06-24T05:50:59.735Z,9.27
2018-06-24T05:53:29.477Z,12.00
2018-06-24T05:55:59.114Z,8.87
2018-06-24T05:58:28.761Z,6.40
2018-06-24T06:00:58.459Z,10.10
2018-06-24T06:03:28.112Z,8.60
2018-06-24T06:05:57.750Z,9.10
2018-06-24T06:08:27.480Z,10.77
2018-06-24T06:10:57.132Z,7.87
2018-06-24T06:13:26.780Z,9.57
2018-06-24T06:15:56.500Z,11.83
2018-06-24T06:18:26.139Z,10.50
2018-06-24T06:20:55.762Z,8.83
2018-06-24T06:23:25.425Z,10.13
2018-06-24T06:25:55.103Z,9.53
2018-06-24T06:28:24.727Z,8.70
2018-06-24T06:30:54.413Z,12.27
2018-06-24T06:33:24.064Z,9.00
2018-06-24T06:35:53.737Z,9.67
2018-06-24T06:38:23.432Z,10.00
2018-06-24T06:40:53.078Z,8.97
2018-06-24T06:43:22.721Z,9.70
2018-06-24T06:45:52.437Z,9.80
2018-06-24T06:48:22.102Z,10.47
2018-06-24T06:50:51.732Z,12.47
2018-06-24T06:53:21.459Z,7.53
2018-06-24T06:55:51.083Z,10.60
2018-06-24T06:58:20.733Z,8.83
2018-06-24T07:00:50.478Z,10.70
2018-06-24T07:03:20.128Z,9.70
2018-06-24T07:05:49.789Z,10.37
2018-06-24T07:08:19.502Z,6.90
2018-06-24T07:10:49.145Z,10.03
2018-06-24T07:13:18.760Z,9.30
2018-06-24T07:15:48.441Z,12.17
2018-06-24T07:18:18.068Z,13.47
2018-06-24T07:20:47.714Z,12.57
2018-06-24T07:23:17.408Z,8.87
2018-06-24T07:25:47.072Z,9.83
2018-06-24T07:28:16.693Z,10.60
2018-06-24T07:30:46.465Z,10.63
2018-06-24T07:33:16.623Z,7.90
2018-06-24T07:35:46.268Z,11.17
2018-06-24T07:38:15.925Z,11.57
2018-06-24T07:40:45.584Z,11.17
2018-06-24T07:43:15.232Z,8.97
2018-06-24T07:45:44.867Z,16.20
2018-06-24T07:48:14.533Z,11.43
2018-06-24T07:50:44.188Z,9.90
2018-06-24T07:53:13.824Z,10.97
2018-06-24T07:55:43.636Z,10.50
2018-06-24T07:58:13.297Z,10.10
2018-06-24T08:00:42.918Z,8.30
2018-06-24T08:03:12.592Z,10.47
2018-06-24T08:05:42.656Z,12.20
2018-06-24T08:08:12.316Z,9.87
2018-06-24T08:10:42.004Z,13.60
2018-06-24T08:13:11.693Z,11.00
2018-06-24T08:15:41.395Z,10.50
2018-06-24T08:18:11.054Z,11.07
2018-06-24T08:20:40.739Z,11.07
2018-06-24T08:23:10.439Z,11.17
2018-06-24T08:25:40.135Z,13.40
2018-06-24T08:28:10.744Z,11.60
2018-06-24T08:30:40.470Z,12.50
2018-06-24T08:33:10.161Z,9.73
2018-06-24T08:35:39.870Z,14.63
2018-06-24T08:38:16.176Z,9.80
2018-06-24T08:40:45.868Z,11.33
2018-06-24T08:43:15.546Z,11.70
2018-06-24T08:45:45.237Z,7.53
2018-06-24T08:48:14.876Z,9.43
2018-06-24T08:50:44.513Z,9.27
2018-06-24T08:53:14.236Z,17.23
2018-06-24T08:55:43.869Z,13.93
2018-06-24T08:58:13.561Z,8.30
2018-06-24T09:00:43.265Z,10.70
2018-06-24T09:03:12.919Z,8.40
2018-06-24T09:05:42.560Z,9.53
2018-06-24T09:08:12.243Z,13.67
2018-06-24T09:10:41.894Z,8.83
2018-06-24T09:13:11.567Z,10.43
2018-06-24T09:15:41.349Z,9.50
2018-06-24T09:18:10.908Z,9.63
2018-06-24T09:20:40.573Z,11.17
2018-06-24T09:23:10.275Z,8.90
2018-06-24T09:25:39.981Z,11.37
2018-06-24T09:28:09.636Z,12.03
2018-06-24T09:30:39.342Z,10.97
2018-06-24T09:33:09.019Z,9.53
2018-06-24T09:35:38.674Z,8.10
2018-06-24T09:38:08.360Z,8.03
2018-06-24T09:40:38.006Z,14.23
2018-06-24T09:43:07.746Z,11.33
2018-06-24T09:45:37.448Z,8.10
2018-06-24T09:48:07.184Z,10.40
2018-06-24T09:50:36.893Z,10.33
2018-06-24T09:53:06.645Z,6.57
2018-06-24T09:55:36.551Z,11.20
2018-06-24T09:58:06.514Z,9.30
2018-06-24T10:00:36.310Z,7.23
2018-06-24T10:03:06.004Z,6.10
2018-06-24T10:05:35.671Z,11.33
2018-06-24T10:08:05.495Z,9.03
2018-06-24T10:10:35.286Z,11.13
2018-06-24T10:13:04.945Z,9.17
2018-06-24T10:15:34.624Z,10.23
2018-06-24T10:18:04.353Z,7.00
2018-06-24T10:20:33.998Z,9.17
2018-06-24T10:23:03.644Z,7.57
2018-06-24T10:25:33.339Z,11.47
2018-06-24T10:28:02.975Z,8.57
2018-06-24T10:30:32.759Z,7.00
2018-06-24T10:33:02.557Z,10.27
2018-06-24T10:35:32.231Z,7.60
2018-06-24T10:38:01.957Z,7.10
2018-06-24T10:40:31.639Z,8.13
2018-06-24T10:43:01.355Z,7.07
2018-06-24T10:45:31.006Z,7.20
2018-06-24T10:48:00.727Z,7.60
2018-06-24T10:50:30.455Z,11.83
2018-06-24T10:53:00.211Z,8.80
2018-06-24T10:55:29.827Z,11.70
2018-06-24T10:57:59.640Z,8.57
2018-06-24T11:00:29.320Z,7.80
2018-06-24T11:02:59.223Z,7.07
2018-06-24T11:05:28.948Z,10.87
2018-06-24T11:07:58.619Z,11.40
2018-06-24T11:10:28.506Z,7.30
2018-06-24T11:12:58.200Z,6.80
2018-06-24T11:15:28.320Z,6.93
2018-06-24T11:17:58.014Z,6.30
2018-06-24T11:20:27.869Z,6.07
2018-06-24T11:22:57.625Z,8.37
2018-06-24T11:25:27.304Z,5.07
2018-06-24T11:27:56.982Z,6.73
2018-06-24T11:30:26.710Z,4.87
2018-06-24T11:32:56.396Z,5.67
2018-06-24T11:35:26.163Z,7.77
2018-06-24T11:37:55.814Z,7.20
2018-06-24T11:40:25.488Z,4.83
2018-06-24T11:42:55.207Z,5.40
2018-06-24T11:45:24.923Z,7.17
2018-06-24T11:47:54.588Z,6.03
2018-06-24T11:50:24.264Z,6.37
2018-06-24T11:52:53.949Z,3.90
2018-06-24T11:55:23.601Z,3.40
2018-06-24T11:57:53.316Z,6.47
2018-06-24T12:00:29.519Z,4.47
2018-06-24T12:02:59.217Z,4.27
2018-06-24T12:05:28.884Z,2.80
2018-06-24T12:07:58.578Z,3.80
2018-06-24T12:10:28.315Z,4.53
2018-06-24T12:12:57.990Z,2.93
2018-06-24T12:15:27.651Z,5.03
2018-06-24T12:17:57.380Z,5.07
2018-06-24T12:20:26.996Z,3.73
2018-06-24T12:22:56.640Z,5.43
2018-06-24T12:25:26.368Z,2.00
2018-06-24T12:27:55.981Z,1.93
2018-06-24T12:30:25.621Z,4.03
2018-06-24T12:32:55.825Z,4.03
2018-06-24T12:35:25.515Z,1.40
2018-06-24T12:37:55.293Z,3.20
2018-06-24T12:40:29.993Z,3.03
2018-06-24T12:43:00.169Z,3.20
2018-06-24T12:45:29.837Z,4.13
2018-06-24T12:47:59.551Z,2.70
2018-06-24T12:50:29.332Z,2.57
2018-06-24T12:52:58.999Z,4.40
2018-06-24T12:55:28.657Z,3.57
2018-06-24T12:57:58.359Z,3.67
2018-06-24T13:00:28.676Z,2.57
2018-06-24T13:02:57.699Z,1.90
2018-06-24T13:05:27.496Z,2.87
2018-06-24T13:07:57.177Z,2.37
2018-06-24T13:10:26.975Z,1.77
2018-06-24T13:12:56.693Z,1.13
2018-06-24T13:15:26.362Z,2.53
2018-06-24T13:17:56.097Z,3.30
2018-06-24T13:20:25.792Z,1.00
2018-06-24T13:22:55.483Z,1.30
2018-06-24T13:25:25.251Z,1.77
2018-06-24T13:27:54.902Z,1.43
2018-06-24T13:30:24.560Z,1.30
2018-06-24T13:32:54.237Z,2.40
2018-06-24T13:35:23.920Z,2.30
2018-06-24T13:37:53.620Z,1.10
2018-06-24T13:40:23.402Z,1.67
2018-06-24T13:42:53.034Z,1.23
2018-06-24T13:45:22.801Z,1.50
2018-06-24T13:47:52.480Z,2.20
2018-06-24T13:50:22.129Z,2.90
2018-06-24T13:52:51.776Z,1.43
2018-06-24T13:55:21.466Z,2.00
2018-06-24T13:57:51.137Z,4.70
2018-06-24T14:00:20.846Z,3.23
2018-06-24T14:02:50.752Z,2.80
2018-06-24T14:05:20.475Z,2.20
2018-06-24T14:07:50.182Z,2.57
2018-06-24T14:10:19.801Z,2.00
2018-06-24T14:12:49.460Z,4.00
2018-06-24T14:15:19.176Z,2.57
2018-06-24T14:17:48.822Z,2.87
2018-06-24T14:20:18.503Z,1.23
2018-06-24T14:22:48.240Z,1.67
2018-06-24T14:25:17.884Z,2.73
2018-06-24T14:27:47.556Z,2.13
2018-06-24T14:30:17.248Z,2.43
2018-06-24T14:32:46.964Z,3.07
2018-06-24T14:35:16.636Z,1.50
2018-06-24T14:37:46.343Z,2.57
2018-06-24T14:40:16.121Z,1.50
2018-06-24T14:42:45.779Z,1.50
2018-06-24T14:45:15.485Z,1.70
2018-06-24T14:47:45.138Z,3.23
2018-06-24T14:50:14.799Z,1.47
2018-06-24T14:52:44.497Z,1.60
2018-06-24T14:55:14.186Z,1.30
2018-06-24T14:57:43.861Z,2.10
2018-06-24T15:00:13.703Z,1.87
2018-06-24T15:02:43.598Z,1.40
2018-06-24T15:05:13.721Z,1.93
2018-06-24T15:07:43.731Z,1.60
2018-06-24T15:10:13.469Z,1.50
2018-06-24T15:12:43.124Z,1.90
2018-06-24T15:15:12.805Z,1.10
2018-06-24T15:17:42.480Z,1.40
2018-06-24T15:20:12.161Z,0.80
2018-06-24T15:22:41.799Z,1.37
2018-06-24T15:25:11.516Z,0.83
2018-06-24T15:27:41.243Z,0.70
2018-06-24T15:30:10.941Z,0.80
2018-06-24T15:32:40.840Z,1.73
2018-06-24T15:35:10.567Z,2.50
2018-06-24T15:37:40.311Z,1.00
2018-06-24T15:40:10.069Z,1.60
2018-06-24T15:42:39.756Z,1.10
2018-06-24T15:45:09.629Z,1.63
2018-06-24T15:47:39.283Z,2.90
2018-06-24T15:50:08.961Z,2.27
2018-06-24T15:52:38.671Z,3.07
2018-06-24T15:55:08.389Z,1.67
2018-06-24T15:57:38.084Z,0.70
2018-06-24T16:00:07.780Z,0.73
2018-06-24T16:02:37.436Z,1.13
2018-06-24T16:05:10.176Z,1.83
2018-06-24T16:07:39.863Z,1.00
2018-06-24T16:10:09.564Z,0.70
2018-06-24T16:12:39.219Z,1.63
2018-06-24T16:15:08.944Z,1.10
2018-06-24T16:17:38.641Z,1.30
2018-06-24T16:20:08.306Z,0.93
2018-06-24T16:22:37.952Z,1.13
2018-06-24T16:25:08.347Z,2.47
2018-06-24T16:27:38.040Z,1.47
2018-06-24T16:30:07.736Z,1.30
2018-06-24T16:32:37.439Z,1.23
2018-06-24T16:35:07.138Z,1.23
2018-06-24T16:37:36.807Z,2.00
2018-06-24T16:40:06.661Z,0.90
2018-06-24T16:42:36.364Z,1.60
2018-06-24T16:45:06.236Z,1.70
2018-06-24T16:47:35.872Z,2.23
2018-06-24T16:50:05.784Z,1.87
2018-06-24T16:52:35.493Z,1.60
2018-06-24T16:55:05.280Z,2.60
2018-06-24T16:57:34.935Z,1.27
2018-06-24T17:00:05.223Z,1.60
2018-06-24T17:02:34.872Z,1.10
2018-06-24T17:05:04.666Z,1.70
2018-06-24T17:07:34.392Z,1.20
2018-06-24T17:10:04.137Z,2.30
2018-06-24T17:12:33.864Z,2.47
2018-06-24T17:15:03.598Z,1.97
2018-06-24T17:17:33.283Z,1.27
2018-06-24T17:20:02.943Z,1.77
2018-06-24T17:22:32.712Z,1.93
2018-06-24T17:25:02.358Z,1.50
2018-06-24T17:27:32.014Z,2.57
2018-06-24T17:30:04.677Z,1.23
2018-06-24T17:32:34.355Z,1.07
2018-06-24T17:35:04.224Z,1.40
2018-06-24T17:37:33.917Z,1.37
2018-06-24T17:40:03.647Z,1.83
2018-06-24T17:42:33.375Z,3.40
2018-06-24T17:45:03.096Z,1.00
2018-06-24T17:47:32.854Z,1.37
2018-06-24T17:50:02.511Z,1.43
2018-06-24T17:52:32.198Z,1.20
2018-06-24T17:55:01.870Z,2.50
2018-06-24T17:57:31.579Z,1.40
2018-06-24T18:00:01.259Z,1.50
2018-06-24T18:02:30.936Z,1.47
2018-06-24T18:05:00.644Z,2.17
2018-06-24T18:07:30.287Z,1.30
2018-06-24T18:09:59.963Z,1.60
2018-06-24T18:12:29.640Z,2.33
2018-06-24T18:14:59.298Z,1.10
2018-06-24T18:17:28.956Z,1.47
2018-06-24T18:19:58.624Z,1.60
2018-06-24T18:22:28.261Z,1.03
2018-06-24T18:24:57.944Z,1.40
2018-06-24T18:27:27.635Z,1.93
2018-06-24T18:29:57.338Z,1.73
2018-06-24T18:32:27.018Z,1.20
2018-06-24T18:34:56.685Z,1.93
2018-06-24T18:37:26.344Z,1.30
2018-06-24T18:39:55.970Z,1.93
2018-06-24T18:42:25.655Z,1.70
2018-06-24T18:44:55.333Z,1.50
2018-06-24T18:47:24.997Z,1.90
2018-06-24T18:49:54.760Z,1.60
2018-06-24T18:52:24.530Z,1.80
2018-06-24T18:54:54.236Z,3.03
2018-06-24T18:57:23.908Z,2.83
2018-06-24T18:59:53.542Z,3.30
2018-06-24T19:02:23.366Z,2.43
2018-06-24T19:04:53.050Z,2.90
2018-06-24T19:07:22.804Z,3.00
2018-06-24T19:09:52.509Z,2.50
2018-06-24T19:12:22.175Z,2.60
2018-06-24T19:14:51.926Z,3.23
2018-06-24T19:17:21.631Z,6.07
2018-06-24T19:19:51.327Z,2.77
2018-06-24T19:22:21.004Z,4.97
2018-06-24T19:24:50.703Z,3.57
2018-06-24T19:27:20.436Z,4.57
2018-06-24T19:29:50.202Z,3.63
2018-06-24T19:32:19.913Z,3.90
2018-06-24T19:34:49.576Z,5.77
2018-06-24T19:37:19.316Z,4.40
2018-06-24T19:39:49.231Z,4.97
2018-06-24T19:42:18.949Z,4.10
2018-06-24T19:44:49.329Z,4.77
2018-06-24T19:47:19.208Z,5.43
2018-06-24T19:49:48.870Z,3.67
2018-06-24T19:52:18.597Z,5.27
2018-06-24T19:54:48.285Z,6.07
2018-06-24T19:57:17.949Z,6.70
2018-06-24T19:59:47.649Z,5.87
2018-06-24T20:02:17.379Z,5.00
2018-06-24T20:04:47.077Z,7.13
2018-06-24T20:07:16.744Z,4.67
2018-06-24T20:09:46.431Z,8.20
2018-06-24T20:12:16.151Z,6.57
2018-06-24T20:14:45.788Z,6.37
2018-06-24T20:17:15.423Z,4.47
2018-06-24T20:19:45.152Z,6.83
2018-06-24T20:22:14.833Z,6.47
2018-06-24T20:24:44.488Z,6.50
2018-06-24T20:27:14.266Z,5.83
2018-06-24T20:29:43.954Z,6.17
2018-06-24T20:32:13.627Z,6.13
2018-06-24T20:34:43.350Z,5.97
2018-06-24T20:37:13.010Z,7.17
2018-06-24T20:39:42.673Z,6.80
2018-06-24T20:42:12.369Z,12.23
2018-06-24T20:44:42.024Z,9.53
2018-06-24T20:47:11.682Z,7.63
2018-06-24T20:49:41.379Z,8.73
2018-06-24T20:52:11.057Z,7.80
2018-06-24T20:54:40.714Z,8.43
2018-06-24T20:57:10.415Z,9.57
2018-06-24T20:59:40.102Z,8.07
2018-06-24T21:02:09.848Z,10.20
2018-06-24T21:04:39.723Z,8.13
2018-06-24T21:07:09.396Z,7.50
2018-06-24T21:09:39.081Z,10.73
2018-06-24T21:12:08.729Z,9.03
2018-06-24T21:14:38.366Z,7.70
2018-06-24T21:17:08.063Z,6.77
2018-06-24T21:19:37.713Z,8.77
2018-06-24T21:22:07.406Z,9.13
2018-06-24T21:24:38.289Z,7.30
2018-06-24T21:27:09.344Z,7.53
2018-06-24T21:29:39.600Z,6.50
2018-06-24T21:32:09.353Z,7.80
2018-06-24T21:34:38.975Z,6.60
2018-06-24T21:37:08.659Z,8.93
2018-06-24T21:39:38.393Z,7.97
2018-06-24T21:42:08.095Z,8.73
2018-06-24T21:44:37.738Z,8.23
2018-06-24T21:47:07.384Z,8.60
2018-06-24T21:49:43.590Z,7.47
2018-06-24T21:52:13.253Z,10.93
2018-06-24T21:54:42.992Z,7.57
2018-06-24T21:57:12.679Z,9.57
2018-06-24T21:59:42.383Z,7.70
2018-06-24T22:02:12.074Z,6.23
2018-06-24T22:04:41.752Z,7.43
2018-06-24T22:07:11.464Z,7.93
2018-06-24T22:09:41.136Z,9.30
2018-06-24T22:12:10.837Z,8.93
2018-06-24T22:14:40.556Z,7.40
2018-06-24T22:17:10.240Z,6.83
2018-06-24T22:19:39.920Z,9.07
2018-06-24T22:22:09.651Z,4.93
2018-06-24T22:24:39.360Z,5.43
2018-06-24T22:27:09.108Z,9.60
2018-06-24T22:29:38.776Z,4.90
2018-06-24T22:32:08.551Z,9.13
2018-06-24T22:34:38.315Z,7.80
2018-06-24T22:37:07.979Z,5.20
2018-06-24T22:39:37.652Z,4.57
2018-06-24T22:42:07.327Z,5.13
2018-06-24T22:44:36.969Z,6.03
2018-06-24T22:47:06.683Z,8.67
2018-06-24T22:49:36.371Z,7.83
2018-06-24T22:52:06.190Z,5.33
2018-06-24T22:54:35.876Z,7.87
2018-06-24T22:57:05.639Z,6.97
2018-06-24T22:59:46.248Z,7.90
2018-06-24T23:02:15.949Z,10.60
2018-06-24T23:04:45.623Z,9.77
2018-06-24T23:07:15.324Z,6.83
2018-06-24T23:09:44.952Z,8.33
2018-06-24T23:12:14.604Z,8.90
2018-06-24T23:14:44.276Z,8.77
2018-06-24T23:17:13.933Z,7.93
2018-06-24T23:19:43.583Z,10.40
2018-06-24T23:22:13.313Z,9.57
2018-06-24T23:24:43.236Z,8.87
2018-06-24T23:27:12.900Z,11.73
2018-06-24T23:29:42.609Z,12.13
2018-06-24T23:32:12.316Z,9.07
2018-06-24T23:34:42.296Z,10.07
2018-06-24T23:37:12.011Z,11.87
2018-06-24T23:39:41.731Z,8.43
2018-06-24T23:42:11.424Z,14.13
2018-06-24T23:44:41.056Z,13.60
2018-06-24T23:47:10.716Z,11.23
2018-06-24T23:49:40.440Z,8.90
2018-06-24T23:52:10.116Z,11.10
2018-06-24T23:54:39.784Z,13.97
2018-06-24T23:57:09.487Z,13.20
2018-06-24T23:59:39.144Z,9.70
